• Join FlightAware (Why Join?)
  • Login
  • US Flag 
07:56PM EDT


 

Airport Tracker/Info


-or-


 

Live Flight TrackerFlight Track Log ✈ CSN312 ✈ 06-May-2013 ✈ VHHH / HKG - ZGOW / SWA

Flight Track Log - Related Links

Times and Time Zones

All times are in EDT time to prevent confusion due to time zone crossing. See the CSN312 flight status page for this flight to view local times or setup timezone preferences in your user account.

Time Position Orientation Groundspeed Altitude Reporting Facility
EDT Latitude Longitude Course Direction KTS MPH feet Rate Location/Type
11:29PM 22.3040 113.9230 75° East 151 174 700  Level FlightAware
11:29PM 22.3110 113.9460 72° East 182 209 1,700 2,160 Climbing FlightAware
11:30PM 22.3190 113.9700 70° East 217 250 2,700 3,000 Climbing FlightAware
11:30PM 22.3290 114.0020 71° East 235 270 4,500 3,660 Climbing FlightAware
11:31PM 22.3380 114.0370 74° East 249 287 6,400 3,000 Climbing FlightAware
11:31PM 22.3290 114.0660 109° East 280 322 7,300 2,580 Climbing FlightAware
11:32PM 22.3130 114.1100 111° Southeast 305 351 8,800 2,220 Climbing FlightAware
11:32PM 22.3080 114.1250 110° East 326 375 9,000 360 Climbing FlightAware
11:32PM 22.2980 114.1530 111° Southeast 345 397 9,000  Level FlightAware
11:33PM 22.2800 114.2030 111° Southeast 355 409 9,000  Level FlightAware
11:33PM 22.2580 114.2650 111° Southeast 353 406 9,000  Level FlightAware
11:34PM 22.2430 114.3060 112° Southeast 353 406 9,000  Level FlightAware
11:34PM 22.2280 114.3480 111° Southeast 353 406 9,000  Level FlightAware
11:35PM 22.2180 114.3760 111° Southeast 353 406 9,000  Level FlightAware
11:35PM 22.2080 114.4040 111° Southeast 353 406 9,000  Level FlightAware
11:35PM 22.1980 114.4320 111° Southeast 353 406 9,000  Level FlightAware
11:38PM 22.2804 114.5849 60° Northeast  Level Estimated
11:39PM 22.3161 114.6515 60° Northeast  Level Estimated
11:40PM 22.3519 114.7180 60° Northeast  Level Estimated
11:41PM 22.3876 114.7847 60° Northeast  Level Estimated
11:42PM 22.4233 114.8513 60° Northeast  Level Estimated
11:43PM 22.4590 114.9180 60° Northeast  Level Estimated
11:44PM 22.4946 114.9847 60° Northeast  Level Estimated
11:45PM 22.5302 115.0514 60° Northeast  Level Estimated
11:46PM 22.5658 115.1182 60° Northeast  Level Estimated
11:47PM 22.6013 115.1850 60° Northeast  Level Estimated
11:48PM 22.6368 115.2519 60° Northeast  Level Estimated
11:49PM 22.6723 115.3188 60° Northeast  Level Estimated
11:50PM 22.7078 115.3857 60° Northeast  Level Estimated
11:51PM 22.7432 115.4527 60° Northeast  Level Estimated
11:52PM 22.7921 115.5451 60° Northeast  Level Estimated
11:53PM 22.8409 115.6376 60° Northeast  Level Estimated
11:54PM 22.8896 115.7301 60° Northeast  Level Estimated
11:55PM 22.9383 115.8227 60° Northeast  Level Estimated
11:56PM 22.9869 115.9154 60° Northeast  Level Estimated
11:57PM 23.0355 116.0081 60° Northeast  Level Estimated
11:58PM 23.0840 116.1009 60° Northeast  Level Estimated
11:59PM 23.1325 116.1938 60° Northeast  Level Estimated
12:00AM 23.1809 116.2868 60° Northeast  Level Estimated
12:01AM 23.2292 116.3798 60° Northeast  Level Estimated
12:02AM 23.2775 116.4728 61° Northeast  Level Estimated
12:03AM 23.3258 116.5660 61° Northeast  Level Estimated
12:04AM 23.3739 116.6592 61° Northeast  Level Estimated
12:05AM 23.4221 116.7525 61° Northeast  Level Estimated
12:06AM 23.4269 116.7619 61° Northeast  Level Estimated
12:07AM 23.4269 116.7619 43° Northeast  Level Estimated
12:08AM 23.4269 116.7619 43° Northeast  Level Estimated
12:09AM 23.4269 116.7619 43° Northeast  Level Estimated
12:10AM 23.4269 116.7619 43° Northeast  Level Estimated
12:11AM 23.4269 116.7619 43° Northeast  Level Estimated
12:12AM 23.4269 116.7619 43° Northeast  Level Estimated
12:13AM 23.4269 116.7619 43° Northeast  Level Estimated